Other Surface Observations
Issued by NWS Missoula, MT

Home | Current Version | Previous Version | Text Only | Print | Product List | Glossary On
Versions: 1 2 3 4 5 6 7 8 9 10 11 12 13 14 15 16 17 18 19 20 21 22 23 24 25 26 27 28 29 30 31 32 33 34 35 36 37 38 39 40 41 42 43 44 45 46 47 48 49 50
000
SXUS55 KMSO 041503
OSOMSO
MONTANA AWOS SUMMARY
NATIONAL WEATHER SERVICE MISSOULA MT
903 AM MDT WED MAY 4 2016

Montana AWOS Reports

ROUNDUP     |KRPX 041455Z AUTO 20006KT 15SM 14/04 A2996 RMK AO1 T01390039
SCOBEY      |K9S2 041455Z AUTO 00000KT 40SM 18/03 A3000 RMK AO1 T01830033
EKALAKA     |K97M 041455Z AUTO 13010G16KT 40SM 20/02 A3009 RMK AO1 T02000022
PLAINS      |KS34 041455Z AUTO 00000KT 25SM 12/08 A3003 RMK AO1 T01170083




USA.gov is the U.S. government's official web portal to all federal, state and local government web resources and services.